Shafter, CA (93263)

7:48 PM PDT on September 22, 2014 (GMT -0700)
NF6P - Riverlakes (NW) | Change Station
CLOSE
Current Station
Personal Weather Station
Location: Bakersfield, CA
Elevation: 422 ft
Nearby Weather Stations

Elev 422 ft 35.39 °N, 119.10 °W | Updated 9 seconds ago

Clear
Clear
82.6 °F
Feels Like 83 °F
N
0.0
Wind Variable Wind from West
Gusts 0.0 mph

Today
High -- | Low -- °F
--% Chance of Precip.
Yesterday
High -- | Low -- °F
Precip. -- in
6:45 AM 6:53 PM
Waning Crescent, 1% visible
Pressure 29.87 in
Visibility 10.0 miles
Clouds Clear
Heat Index 83 °F
Dew Point 59 °F
Humidity 45%
Rainfall 0.00 in
Snow Depth 0 in , 0 in
UV 0 out of 12
Pollen 6.80 out of 12
PM2.5 Good
Flu Activity Not available.
METAR KBFL 230154Z AUTO 28006KT 10SM CLR 30/12 A2989 RMK AO2 SLP114 T03000122 TSNO

More Conditions Fewer Conditions

Pressure 29.87 in
Visibility 10.0 miles
Clouds Clear
Heat Index 83 °F
Dew Point 59 °F
Humidity 45%
Rainfall 0.00 in
Snow Depth 0 in , 0 in
UV 0 out of 12
Pollen 6.80 out of 12
PM2.5 Good
Flu Activity Not available.
METAR KBFL 230154Z AUTO 28006KT 10SM CLR 30/12 A2989 RMK AO2 SLP114 T03000122 TSNO

More Conditions Fewer Conditions

10-Day Weather Forecast

Almanac

Astronomy

Sep. 22, 2014 Rise Set
Actual Time 6:45 AM PDT 6:53 PM PDT
Civil Twilight 6:19 AM PDT 7:19 PM PDT
Nautical Twilight 5:50 AM PDT 7:48 PM PDT
Astronomical Twilight 5:19 AM PDT 8:18 PM PDT
Moon 5:20 AM PDT (9/22) 6:02 PM PDT (9/22)
Length of Visible Light 12h 59m
Length of Day
12h 08m
Tomorrow will be 2m 12s shorter.
Waning Crescent, 1% of the Moon is Illuminated
Today
Waning Crescent
Sep 24
New
Oct 1
First Quarter
Oct 8
Full
Oct 15
Last Quarter

Today's Extremes

State Highs State Lows

Community

WunderPhotos

Upload Photos

1,755,587 photos uploaded!

Nearby

Air Quality

  Air Quality AQ Index Pollutant
Yesterday Good
OZONE
Yesterday Good
PM2.5
Current Good
PM2.5
Monday Moderate
OZONE
Tuesday Moderate
OZONE
Wednesday Moderate
OZONE
Thursday Moderate
OZONE
Friday Moderate
OZONE
Saturday Moderate
OZONE

Snow Depth

Station Depth Elevation
Summit Meadow 0 in 9122 ft
Adin Mountain 0 in 6200 ft
CSS Lab 0 in 6900 ft
Leavitt Meadows 0 in 7200 ft

Earthquake Activity

City Distance Mag. Time & Date
Inyokern, California 88 miles 3.1 5:33 PM PDT
2014-09-19
Minimum magnitude displayed is 2.5.

Coastal Water Temperatures

Place Temperature
No Stations Reporting

Nearby Weather Stations